sensor_id;sensor_type;location;lat;lon;timestamp;P1;durP1;ratioP1;P2;durP2;ratioP2
20997;SDS011;10657;51.276;6.390;2023-09-07T00:01:31;8.23;;;5.30;;
20997;SDS011;10657;51.276;6.390;2023-09-07T00:03:58;9.35;;;5.63;;
20997;SDS011;10657;51.276;6.390;2023-09-07T00:06:25;9.35;;;5.45;;
20997;SDS011;10657;51.276;6.390;2023-09-07T00:08:52;8.23;;;5.22;;
20997;SDS011;10657;51.276;6.390;2023-09-07T00:11:19;14.45;;;5.72;;
20997;SDS011;10657;51.276;6.390;2023-09-07T00:13:46;9.98;;;5.15;;
20997;SDS011;10657;51.276;6.390;2023-09-07T00:16:12;9.52;;;5.25;;
20997;SDS011;10657;51.276;6.390;2023-09-07T00:18:39;8.00;;;5.00;;
20997;SDS011;10657;51.276;6.390;2023-09-07T00:21:06;8.75;;;4.70;;
20997;SDS011;10657;51.276;6.390;2023-09-07T00:23:33;12.48;;;5.10;;
20997;SDS011;10657;51.276;6.390;2023-09-07T00:25:59;9.13;;;5.35;;
20997;SDS011;10657;51.276;6.390;2023-09-07T00:28:26;11.63;;;5.22;;
20997;SDS011;10657;51.276;6.390;2023-09-07T00:30:53;10.38;;;5.50;;
20997;SDS011;10657;51.276;6.390;2023-09-07T00:33:20;9.88;;;5.75;;
20997;SDS011;10657;51.276;6.390;2023-09-07T00:35:46;9.82;;;5.85;;
20997;SDS011;10657;51.276;6.390;2023-09-07T00:38:13;10.95;;;5.88;;
20997;SDS011;10657;51.276;6.390;2023-09-07T00:40:42;9.50;;;5.95;;
20997;SDS011;10657;51.276;6.390;2023-09-07T00:43:11;11.25;;;5.70;;
20997;SDS011;10657;51.276;6.390;2023-09-07T00:45:38;12.57;;;6.35;;
20997;SDS011;10657;51.276;6.390;2023-09-07T00:48:06;10.45;;;5.95;;
20997;SDS011;10657;51.276;6.390;2023-09-07T00:50:33;10.10;;;6.07;;
20997;SDS011;10657;51.276;6.390;2023-09-07T00:53:00;12.20;;;6.00;;
20997;SDS011;10657;51.276;6.390;2023-09-07T00:55:29;9.95;;;6.05;;
20997;SDS011;10657;51.276;6.390;2023-09-07T00:57:59;11.18;;;6.32;;
20997;SDS011;10657;51.276;6.390;2023-09-07T01:00:25;11.02;;;6.03;;
20997;SDS011;10657;51.276;6.390;2023-09-07T01:02:52;13.30;;;6.90;;
20997;SDS011;10657;51.276;6.390;2023-09-07T01:05:21;13.50;;;6.15;;
20997;SDS011;10657;51.276;6.390;2023-09-07T01:07:57;14.95;;;6.68;;
20997;SDS011;10657;51.276;6.390;2023-09-07T01:10:30;12.52;;;6.55;;
20997;SDS011;10657;51.276;6.390;2023-09-07T01:12:57;12.10;;;6.40;;
20997;SDS011;10657;51.276;6.390;2023-09-07T01:15:24;9.00;;;5.90;;
20997;SDS011;10657;51.276;6.390;2023-09-07T01:17:50;13.75;;;6.70;;
20997;SDS011;10657;51.276;6.390;2023-09-07T01:20:18;11.23;;;6.15;;
20997;SDS011;10657;51.276;6.390;2023-09-07T01:22:46;11.93;;;6.32;;
20997;SDS011;10657;51.276;6.390;2023-09-07T01:25:13;12.68;;;6.18;;
20997;SDS011;10657;51.276;6.390;2023-09-07T01:27:41;11.90;;;6.47;;
20997;SDS011;10657;51.276;6.390;2023-09-07T01:30:08;10.68;;;6.20;;
20997;SDS011;10657;51.276;6.390;2023-09-07T01:32:35;10.40;;;6.43;;
20997;SDS011;10657;51.276;6.390;2023-09-07T01:35:02;11.00;;;6.28;;
20997;SDS011;10657;51.276;6.390;2023-09-07T01:37:32;14.98;;;6.95;;
20997;SDS011;10657;51.276;6.390;2023-09-07T01:39:59;10.52;;;6.57;;
20997;SDS011;10657;51.276;6.390;2023-09-07T01:42:27;12.38;;;6.70;;
20997;SDS011;10657;51.276;6.390;2023-09-07T01:44:53;10.90;;;6.53;;
20997;SDS011;10657;51.276;6.390;2023-09-07T01:47:20;11.57;;;7.25;;
20997;SDS011;10657;51.276;6.390;2023-09-07T01:49:47;12.68;;;6.18;;
20997;SDS011;10657;51.276;6.390;2023-09-07T01:52:13;11.18;;;6.80;;
20997;SDS011;10657;51.276;6.390;2023-09-07T01:54:40;9.95;;;6.40;;
20997;SDS011;10657;51.276;6.390;2023-09-07T01:57:07;11.05;;;6.53;;
20997;SDS011;10657;51.276;6.390;2023-09-07T01:59:34;11.05;;;6.55;;
20997;SDS011;10657;51.276;6.390;2023-09-07T02:02:00;20.63;;;6.80;;
20997;SDS011;10657;51.276;6.390;2023-09-07T02:04:27;11.70;;;6.97;;
20997;SDS011;10657;51.276;6.390;2023-09-07T02:06:54;10.68;;;6.45;;
20997;SDS011;10657;51.276;6.390;2023-09-07T02:09:21;10.77;;;6.25;;
20997;SDS011;10657;51.276;6.390;2023-09-07T02:11:47;12.88;;;7.00;;
20997;SDS011;10657;51.276;6.390;2023-09-07T02:14:15;11.18;;;6.32;;
20997;SDS011;10657;51.276;6.390;2023-09-07T02:16:41;11.93;;;6.57;;
20997;SDS011;10657;51.276;6.390;2023-09-07T02:19:09;11.35;;;6.25;;
20997;SDS011;10657;51.276;6.390;2023-09-07T02:21:36;12.75;;;6.35;;
20997;SDS011;10657;51.276;6.390;2023-09-07T02:24:03;9.43;;;6.28;;
20997;SDS011;10657;51.276;6.390;2023-09-07T02:26:29;12.73;;;7.18;;
20997;SDS011;10657;51.276;6.390;2023-09-07T02:28:56;10.88;;;6.55;;
20997;SDS011;10657;51.276;6.390;2023-09-07T02:31:23;12.35;;;6.38;;
20997;SDS011;10657;51.276;6.390;2023-09-07T02:33:50;11.23;;;6.85;;
20997;SDS011;10657;51.276;6.390;2023-09-07T02:36:17;12.20;;;6.82;;
20997;SDS011;10657;51.276;6.390;2023-09-07T02:38:44;11.98;;;6.60;;
20997;SDS011;10657;51.276;6.390;2023-09-07T02:41:11;11.45;;;6.40;;
20997;SDS011;10657;51.276;6.390;2023-09-07T02:43:38;12.68;;;6.65;;
20997;SDS011;10657;51.276;6.390;2023-09-07T02:46:05;12.55;;;6.72;;
20997;SDS011;10657;51.276;6.390;2023-09-07T02:48:31;12.18;;;6.47;;
20997;SDS011;10657;51.276;6.390;2023-09-07T02:50:59;12.57;;;6.85;;
20997;SDS011;10657;51.276;6.390;2023-09-07T02:53:26;12.07;;;6.50;;
20997;SDS011;10657;51.276;6.390;2023-09-07T02:55:53;12.80;;;6.72;;
20997;SDS011;10657;51.276;6.390;2023-09-07T02:58:19;11.48;;;6.30;;
20997;SDS011;10657;51.276;6.390;2023-09-07T03:00:48;10.88;;;6.35;;
20997;SDS011;10657;51.276;6.390;2023-09-07T03:03:15;10.98;;;6.07;;
20997;SDS011;10657;51.276;6.390;2023-09-07T03:05:43;12.40;;;6.40;;
20997;SDS011;10657;51.276;6.390;2023-09-07T03:08:10;11.55;;;6.20;;
20997;SDS011;10657;51.276;6.390;2023-09-07T03:10:36;11.85;;;6.78;;
20997;SDS011;10657;51.276;6.390;2023-09-07T03:13:06;9.85;;;6.07;;
20997;SDS011;10657;51.276;6.390;2023-09-07T03:15:33;11.68;;;6.28;;
20997;SDS011;10657;51.276;6.390;2023-09-07T03:18:00;11.02;;;6.20;;
20997;SDS011;10657;51.276;6.390;2023-09-07T03:20:27;11.45;;;6.18;;
20997;SDS011;10657;51.276;6.390;2023-09-07T03:22:54;10.30;;;6.20;;
20997;SDS011;10657;51.276;6.390;2023-09-07T03:25:22;13.38;;;6.63;;
20997;SDS011;10657;51.276;6.390;2023-09-07T03:27:49;11.90;;;6.70;;
20997;SDS011;10657;51.276;6.390;2023-09-07T03:30:16;11.18;;;6.10;;
20997;SDS011;10657;51.276;6.390;2023-09-07T03:32:42;10.45;;;6.30;;
20997;SDS011;10657;51.276;6.390;2023-09-07T03:35:09;12.10;;;6.10;;
20997;SDS011;10657;51.276;6.390;2023-09-07T03:37:36;10.43;;;6.15;;
20997;SDS011;10657;51.276;6.390;2023-09-07T03:40:04;10.38;;;6.43;;
20997;SDS011;10657;51.276;6.390;2023-09-07T03:42:32;13.07;;;6.78;;
20997;SDS011;10657;51.276;6.390;2023-09-07T03:44:59;11.25;;;6.05;;
20997;SDS011;10657;51.276;6.390;2023-09-07T03:47:26;11.15;;;6.18;;
20997;SDS011;10657;51.276;6.390;2023-09-07T03:49:56;11.07;;;6.05;;
20997;SDS011;10657;51.276;6.390;2023-09-07T03:52:23;12.80;;;6.25;;
20997;SDS011;10657;51.276;6.390;2023-09-07T03:54:55;12.05;;;6.32;;
20997;SDS011;10657;51.276;6.390;2023-09-07T03:57:23;11.25;;;5.75;;
20997;SDS011;10657;51.276;6.390;2023-09-07T03:59:51;11.65;;;5.97;;
20997;SDS011;10657;51.276;6.390;2023-09-07T04:02:18;12.43;;;5.82;;
20997;SDS011;10657;51.276;6.390;2023-09-07T04:04:49;10.90;;;5.68;;
20997;SDS011;10657;51.276;6.390;2023-09-07T04:07:16;9.18;;;5.53;;
20997;SDS011;10657;51.276;6.390;2023-09-07T04:09:44;12.27;;;5.60;;
20997;SDS011;10657;51.276;6.390;2023-09-07T04:12:11;9.18;;;5.63;;
20997;SDS011;10657;51.276;6.390;2023-09-07T04:14:38;9.07;;;5.63;;
20997;SDS011;10657;51.276;6.390;2023-09-07T04:17:05;10.25;;;6.00;;
20997;SDS011;10657;51.276;6.390;2023-09-07T04:19:32;13.50;;;6.30;;
20997;SDS011;10657;51.276;6.390;2023-09-07T04:21:59;11.63;;;6.18;;
20997;SDS011;10657;51.276;6.390;2023-09-07T04:24:26;12.38;;;6.05;;
20997;SDS011;10657;51.276;6.390;2023-09-07T04:26:57;19.83;;;6.30;;
20997;SDS011;10657;51.276;6.390;2023-09-07T04:29:25;15.77;;;6.10;;
20997;SDS011;10657;51.276;6.390;2023-09-07T04:31:51;9.48;;;5.97;;
20997;SDS011;10657;51.276;6.390;2023-09-07T04:34:18;13.85;;;5.80;;
20997;SDS011;10657;51.276;6.390;2023-09-07T04:36:47;13.00;;;6.25;;
20997;SDS011;10657;51.276;6.390;2023-09-07T04:39:14;13.50;;;6.20;;
20997;SDS011;10657;51.276;6.390;2023-09-07T04:41:40;10.40;;;6.35;;
20997;SDS011;10657;51.276;6.390;2023-09-07T04:44:07;11.02;;;6.38;;
20997;SDS011;10657;51.276;6.390;2023-09-07T04:46:34;10.98;;;6.10;;
20997;SDS011;10657;51.276;6.390;2023-09-07T04:49:01;10.02;;;6.28;;
20997;SDS011;10657;51.276;6.390;2023-09-07T04:51:27;11.68;;;6.53;;
20997;SDS011;10657;51.276;6.390;2023-09-07T04:53:54;11.13;;;6.35;;
20997;SDS011;10657;51.276;6.390;2023-09-07T04:56:21;10.73;;;5.82;;
20997;SDS011;10657;51.276;6.390;2023-09-07T04:58:48;12.75;;;6.75;;
20997;SDS011;10657;51.276;6.390;2023-09-07T05:01:15;12.13;;;5.70;;
20997;SDS011;10657;51.276;6.390;2023-09-07T05:03:41;11.40;;;5.95;;
20997;SDS011;10657;51.276;6.390;2023-09-07T05:06:08;10.77;;;6.22;;
20997;SDS011;10657;51.276;6.390;2023-09-07T05:08:35;14.77;;;6.13;;
20997;SDS011;10657;51.276;6.390;2023-09-07T05:11:02;12.05;;;5.82;;
20997;SDS011;10657;51.276;6.390;2023-09-07T05:13:30;11.07;;;6.03;;
20997;SDS011;10657;51.276;6.390;2023-09-07T05:15:57;9.32;;;5.50;;
20997;SDS011;10657;51.276;6.390;2023-09-07T05:18:25;9.85;;;5.85;;
20997;SDS011;10657;51.276;6.390;2023-09-07T05:20:52;9.75;;;5.55;;
20997;SDS011;10657;51.276;6.390;2023-09-07T05:23:19;9.77;;;5.70;;
20997;SDS011;10657;51.276;6.390;2023-09-07T05:25:48;10.02;;;5.45;;
20997;SDS011;10657;51.276;6.390;2023-09-07T05:28:19;8.13;;;4.97;;
20997;SDS011;10657;51.276;6.390;2023-09-07T05:30:47;11.43;;;5.55;;
20997;SDS011;10657;51.276;6.390;2023-09-07T05:33:15;8.88;;;5.43;;
20997;SDS011;10657;51.276;6.390;2023-09-07T05:35:43;8.38;;;5.13;;
20997;SDS011;10657;51.276;6.390;2023-09-07T05:38:11;10.57;;;5.15;;
20997;SDS011;10657;51.276;6.390;2023-09-07T05:40:39;11.23;;;5.85;;
20997;SDS011;10657;51.276;6.390;2023-09-07T05:43:07;9.05;;;5.55;;
20997;SDS011;10657;51.276;6.390;2023-09-07T05:45:34;9.05;;;5.60;;
20997;SDS011;10657;51.276;6.390;2023-09-07T05:48:03;12.90;;;6.05;;
20997;SDS011;10657;51.276;6.390;2023-09-07T05:50:30;10.45;;;6.25;;
20997;SDS011;10657;51.276;6.390;2023-09-07T05:52:59;15.65;;;5.88;;
20997;SDS011;10657;51.276;6.390;2023-09-07T05:55:26;9.63;;;5.70;;
20997;SDS011;10657;51.276;6.390;2023-09-07T05:57:56;13.02;;;5.90;;
20997;SDS011;10657;51.276;6.390;2023-09-07T06:00:24;9.10;;;5.45;;
20997;SDS011;10657;51.276;6.390;2023-09-07T06:02:51;13.07;;;6.07;;
20997;SDS011;10657;51.276;6.390;2023-09-07T06:05:18;9.85;;;5.93;;
20997;SDS011;10657;51.276;6.390;2023-09-07T06:07:45;7.97;;;4.53;;
20997;SDS011;10657;51.276;6.390;2023-09-07T06:10:12;9.15;;;5.47;;
20997;SDS011;10657;51.276;6.390;2023-09-07T06:12:39;10.10;;;5.88;;
20997;SDS011;10657;51.276;6.390;2023-09-07T06:15:06;8.98;;;5.10;;
20997;SDS011;10657;51.276;6.390;2023-09-07T06:17:33;13.18;;;5.47;;
20997;SDS011;10657;51.276;6.390;2023-09-07T06:20:00;11.23;;;5.93;;
20997;SDS011;10657;51.276;6.390;2023-09-07T06:22:27;9.65;;;4.72;;
20997;SDS011;10657;51.276;6.390;2023-09-07T06:24:53;8.05;;;4.50;;
20997;SDS011;10657;51.276;6.390;2023-09-07T06:27:20;9.23;;;5.05;;
20997;SDS011;10657;51.276;6.390;2023-09-07T06:29:47;10.13;;;5.47;;
20997;SDS011;10657;51.276;6.390;2023-09-07T06:32:13;12.15;;;5.25;;
20997;SDS011;10657;51.276;6.390;2023-09-07T06:34:40;13.73;;;6.00;;
20997;SDS011;10657;51.276;6.390;2023-09-07T06:37:07;10.93;;;6.07;;
20997;SDS011;10657;51.276;6.390;2023-09-07T06:39:34;11.70;;;6.50;;
20997;SDS011;10657;51.276;6.390;2023-09-07T06:42:01;10.43;;;5.40;;
20997;SDS011;10657;51.276;6.390;2023-09-07T06:44:28;9.27;;;4.85;;
20997;SDS011;10657;51.276;6.390;2023-09-07T06:46:54;7.50;;;3.58;;
20997;SDS011;10657;51.276;6.390;2023-09-07T06:49:22;9.07;;;4.97;;
20997;SDS011;10657;51.276;6.390;2023-09-07T06:51:48;9.85;;;5.70;;
20997;SDS011;10657;51.276;6.390;2023-09-07T06:54:15;9.50;;;5.15;;
20997;SDS011;10657;51.276;6.390;2023-09-07T06:56:42;10.48;;;5.07;;
20997;SDS011;10657;51.276;6.390;2023-09-07T06:59:08;8.48;;;3.75;;
20997;SDS011;10657;51.276;6.390;2023-09-07T07:01:35;11.07;;;5.50;;
20997;SDS011;10657;51.276;6.390;2023-09-07T07:04:02;7.95;;;4.60;;
20997;SDS011;10657;51.276;6.390;2023-09-07T07:06:29;12.70;;;6.13;;
20997;SDS011;10657;51.276;6.390;2023-09-07T07:08:55;9.00;;;5.32;;
20997;SDS011;10657;51.276;6.390;2023-09-07T07:11:22;7.65;;;3.47;;
20997;SDS011;10657;51.276;6.390;2023-09-07T07:13:49;6.82;;;3.50;;
20997;SDS011;10657;51.276;6.390;2023-09-07T07:16:16;6.93;;;3.53;;
20997;SDS011;10657;51.276;6.390;2023-09-07T07:18:43;7.30;;;3.85;;
20997;SDS011;10657;51.276;6.390;2023-09-07T07:21:10;7.55;;;4.05;;
20997;SDS011;10657;51.276;6.390;2023-09-07T07:23:36;8.18;;;4.30;;
20997;SDS011;10657;51.276;6.390;2023-09-07T07:26:03;8.10;;;4.40;;
20997;SDS011;10657;51.276;6.390;2023-09-07T07:28:30;8.73;;;5.38;;
20997;SDS011;10657;51.276;6.390;2023-09-07T07:30:57;13.10;;;6.03;;
20997;SDS011;10657;51.276;6.390;2023-09-07T07:33:23;12.82;;;6.10;;
20997;SDS011;10657;51.276;6.390;2023-09-07T07:35:50;8.48;;;4.60;;
20997;SDS011;10657;51.276;6.390;2023-09-07T07:38:17;9.18;;;5.50;;
20997;SDS011;10657;51.276;6.390;2023-09-07T07:40:45;9.30;;;4.95;;
20997;SDS011;10657;51.276;6.390;2023-09-07T07:43:12;8.75;;;3.67;;
20997;SDS011;10657;51.276;6.390;2023-09-07T07:45:39;7.57;;;3.97;;
20997;SDS011;10657;51.276;6.390;2023-09-07T07:48:06;6.97;;;3.95;;
20997;SDS011;10657;51.276;6.390;2023-09-07T07:50:37;8.65;;;4.72;;
20997;SDS011;10657;51.276;6.390;2023-09-07T07:53:07;7.72;;;3.90;;
20997;SDS011;10657;51.276;6.390;2023-09-07T07:55:36;7.88;;;4.30;;
20997;SDS011;10657;51.276;6.390;2023-09-07T07:58:07;9.43;;;4.78;;
20997;SDS011;10657;51.276;6.390;2023-09-07T08:00:35;8.82;;;4.88;;
20997;SDS011;10657;51.276;6.390;2023-09-07T08:03:02;10.45;;;4.45;;
20997;SDS011;10657;51.276;6.390;2023-09-07T08:05:32;10.45;;;4.55;;
20997;SDS011;10657;51.276;6.390;2023-09-07T08:07:59;8.95;;;4.95;;
20997;SDS011;10657;51.276;6.390;2023-09-07T08:10:26;8.60;;;4.10;;
20997;SDS011;10657;51.276;6.390;2023-09-07T08:12:57;7.10;;;3.92;;
20997;SDS011;10657;51.276;6.390;2023-09-07T08:15:23;8.05;;;4.20;;
20997;SDS011;10657;51.276;6.390;2023-09-07T08:17:51;8.85;;;4.55;;
20997;SDS011;10657;51.276;6.390;2023-09-07T08:20:19;9.05;;;4.85;;
20997;SDS011;10657;51.276;6.390;2023-09-07T08:22:45;8.23;;;4.82;;
20997;SDS011;10657;51.276;6.390;2023-09-07T08:25:13;8.18;;;4.30;;
20997;SDS011;10657;51.276;6.390;2023-09-07T08:27:40;7.43;;;4.00;;
20997;SDS011;10657;51.276;6.390;2023-09-07T08:30:12;9.27;;;4.70;;
20997;SDS011;10657;51.276;6.390;2023-09-07T08:32:42;6.95;;;3.55;;
20997;SDS011;10657;51.276;6.390;2023-09-07T08:35:09;8.93;;;3.90;;
20997;SDS011;10657;51.276;6.390;2023-09-07T08:37:39;8.18;;;3.80;;
20997;SDS011;10657;51.276;6.390;2023-09-07T08:40:06;6.80;;;3.70;;
20997;SDS011;10657;51.276;6.390;2023-09-07T08:42:37;9.20;;;4.50;;
20997;SDS011;10657;51.276;6.390;2023-09-07T08:45:07;9.63;;;4.40;;
20997;SDS011;10657;51.276;6.390;2023-09-07T08:47:35;6.70;;;3.67;;
20997;SDS011;10657;51.276;6.390;2023-09-07T08:50:06;6.63;;;3.20;;
20997;SDS011;10657;51.276;6.390;2023-09-07T08:52:35;8.77;;;4.03;;
20997;SDS011;10657;51.276;6.390;2023-09-07T08:55:02;7.72;;;3.90;;
20997;SDS011;10657;51.276;6.390;2023-09-07T08:57:32;8.63;;;4.88;;
20997;SDS011;10657;51.276;6.390;2023-09-07T08:59:58;7.10;;;3.83;;
20997;SDS011;10657;51.276;6.390;2023-09-07T09:02:25;7.70;;;4.07;;
20997;SDS011;10657;51.276;6.390;2023-09-07T09:04:53;8.40;;;4.72;;
20997;SDS011;10657;51.276;6.390;2023-09-07T09:07:20;8.10;;;3.92;;
20997;SDS011;10657;51.276;6.390;2023-09-07T09:09:48;9.40;;;4.03;;
20997;SDS011;10657;51.276;6.390;2023-09-07T09:12:16;8.77;;;4.55;;
20997;SDS011;10657;51.276;6.390;2023-09-07T09:14:43;8.65;;;4.20;;
20997;SDS011;10657;51.276;6.390;2023-09-07T09:17:11;11.63;;;5.35;;
20997;SDS011;10657;51.276;6.390;2023-09-07T09:19:40;6.53;;;3.40;;
20997;SDS011;10657;51.276;6.390;2023-09-07T09:22:11;9.35;;;4.70;;
20997;SDS011;10657;51.276;6.390;2023-09-07T09:24:38;9.88;;;4.85;;
20997;SDS011;10657;51.276;6.390;2023-09-07T09:27:05;6.75;;;3.80;;
20997;SDS011;10657;51.276;6.390;2023-09-07T09:29:34;7.45;;;4.00;;
20997;SDS011;10657;51.276;6.390;2023-09-07T09:32:05;14.05;;;5.50;;
20997;SDS011;10657;51.276;6.390;2023-09-07T09:34:33;8.80;;;5.22;;
20997;SDS011;10657;51.276;6.390;2023-09-07T09:37:01;6.35;;;3.42;;
20997;SDS011;10657;51.276;6.390;2023-09-07T09:39:32;6.95;;;3.53;;
20997;SDS011;10657;51.276;6.390;2023-09-07T09:41:59;10.50;;;4.22;;
20997;SDS011;10657;51.276;6.390;2023-09-07T09:44:27;6.88;;;3.58;;
20997;SDS011;10657;51.276;6.390;2023-09-07T09:46:55;9.23;;;3.90;;
20997;SDS011;10657;51.276;6.390;2023-09-07T09:49:23;9.50;;;4.10;;
20997;SDS011;10657;51.276;6.390;2023-09-07T09:51:52;7.07;;;3.60;;
20997;SDS011;10657;51.276;6.390;2023-09-07T09:54:20;9.55;;;5.43;;
20997;SDS011;10657;51.276;6.390;2023-09-07T09:56:48;8.65;;;4.70;;
20997;SDS011;10657;51.276;6.390;2023-09-07T09:59:14;7.03;;;3.55;;
20997;SDS011;10657;51.276;6.390;2023-09-07T10:01:47;9.27;;;4.05;;
20997;SDS011;10657;51.276;6.390;2023-09-07T10:04:17;8.32;;;4.50;;
20997;SDS011;10657;51.276;6.390;2023-09-07T10:07:00;7.28;;;3.58;;
20997;SDS011;10657;51.276;6.390;2023-09-07T10:09:34;7.93;;;4.63;;
20997;SDS011;10657;51.276;6.390;2023-09-07T10:12:02;6.40;;;3.17;;
20997;SDS011;10657;51.276;6.390;2023-09-07T10:14:40;9.05;;;5.00;;
20997;SDS011;10657;51.276;6.390;2023-09-07T10:17:07;7.53;;;4.05;;
20997;SDS011;10657;51.276;6.390;2023-09-07T10:19:36;9.52;;;5.05;;
20997;SDS011;10657;51.276;6.390;2023-09-07T10:22:04;8.68;;;4.32;;
20997;SDS011;10657;51.276;6.390;2023-09-07T10:24:34;7.15;;;3.70;;
20997;SDS011;10657;51.276;6.390;2023-09-07T10:27:06;7.75;;;3.60;;
20997;SDS011;10657;51.276;6.390;2023-09-07T10:29:46;7.45;;;4.13;;
20997;SDS011;10657;51.276;6.390;2023-09-07T10:32:22;7.57;;;4.60;;
20997;SDS011;10657;51.276;6.390;2023-09-07T10:34:49;8.68;;;4.32;;
20997;SDS011;10657;51.276;6.390;2023-09-07T10:37:16;8.73;;;4.40;;
20997;SDS011;10657;51.276;6.390;2023-09-07T10:39:44;8.10;;;5.10;;
20997;SDS011;10657;51.276;6.390;2023-09-07T10:42:21;11.27;;;4.68;;
20997;SDS011;10657;51.276;6.390;2023-09-07T10:44:52;7.53;;;4.20;;
20997;SDS011;10657;51.276;6.390;2023-09-07T10:47:19;6.20;;;2.72;;
20997;SDS011;10657;51.276;6.390;2023-09-07T10:49:46;7.88;;;4.13;;
20997;SDS011;10657;51.276;6.390;2023-09-07T10:52:13;8.38;;;3.97;;
20997;SDS011;10657;51.276;6.390;2023-09-07T10:54:40;9.52;;;4.93;;
20997;SDS011;10657;51.276;6.390;2023-09-07T10:57:07;7.13;;;3.85;;
20997;SDS011;10657;51.276;6.390;2023-09-07T10:59:35;7.18;;;3.80;;
20997;SDS011;10657;51.276;6.390;2023-09-07T11:02:03;7.00;;;3.85;;
20997;SDS011;10657;51.276;6.390;2023-09-07T11:04:31;7.38;;;3.90;;
20997;SDS011;10657;51.276;6.390;2023-09-07T11:06:58;9.55;;;4.25;;
20997;SDS011;10657;51.276;6.390;2023-09-07T11:09:24;7.82;;;3.97;;
20997;SDS011;10657;51.276;6.390;2023-09-07T11:11:51;7.45;;;4.72;;
20997;SDS011;10657;51.276;6.390;2023-09-07T11:14:20;7.22;;;3.30;;
20997;SDS011;10657;51.276;6.390;2023-09-07T11:16:48;8.70;;;4.70;;
20997;SDS011;10657;51.276;6.390;2023-09-07T11:19:15;8.13;;;4.25;;
20997;SDS011;10657;51.276;6.390;2023-09-07T11:21:45;7.57;;;4.20;;
20997;SDS011;10657;51.276;6.390;2023-09-07T11:24:11;7.05;;;3.88;;
20997;SDS011;10657;51.276;6.390;2023-09-07T11:26:44;8.73;;;4.20;;
20997;SDS011;10657;51.276;6.390;2023-09-07T11:29:15;7.50;;;4.00;;
20997;SDS011;10657;51.276;6.390;2023-09-07T11:31:43;9.60;;;4.43;;
20997;SDS011;10657;51.276;6.390;2023-09-07T11:34:12;8.65;;;4.45;;
20997;SDS011;10657;51.276;6.390;2023-09-07T11:36:40;9.27;;;5.07;;
20997;SDS011;10657;51.276;6.390;2023-09-07T11:39:07;8.40;;;4.72;;
20997;SDS011;10657;51.276;6.390;2023-09-07T11:41:41;8.10;;;4.30;;
20997;SDS011;10657;51.276;6.390;2023-09-07T11:44:08;7.45;;;4.10;;
20997;SDS011;10657;51.276;6.390;2023-09-07T11:46:36;8.35;;;3.72;;
20997;SDS011;10657;51.276;6.390;2023-09-07T11:49:03;9.30;;;4.40;;
20997;SDS011;10657;51.276;6.390;2023-09-07T11:51:35;7.63;;;4.22;;
20997;SDS011;10657;51.276;6.390;2023-09-07T11:54:02;8.35;;;4.50;;
20997;SDS011;10657;51.276;6.390;2023-09-07T11:56:29;9.05;;;5.05;;
20997;SDS011;10657;51.276;6.390;2023-09-07T11:58:56;8.57;;;4.80;;
20997;SDS011;10657;51.276;6.390;2023-09-07T12:01:23;7.30;;;3.90;;
20997;SDS011;10657;51.276;6.390;2023-09-07T12:03:52;10.70;;;4.20;;
20997;SDS011;10657;51.276;6.390;2023-09-07T12:06:19;7.97;;;4.32;;
20997;SDS011;10657;51.276;6.390;2023-09-07T12:08:59;10.38;;;4.95;;
20997;SDS011;10657;51.276;6.390;2023-09-07T12:11:27;8.95;;;4.05;;
20997;SDS011;10657;51.276;6.390;2023-09-07T12:13:54;8.38;;;4.22;;
20997;SDS011;10657;51.276;6.390;2023-09-07T12:16:20;8.32;;;3.63;;
20997;SDS011;10657;51.276;6.390;2023-09-07T12:18:48;12.02;;;4.53;;
20997;SDS011;10657;51.276;6.390;2023-09-07T12:21:15;7.05;;;3.97;;
20997;SDS011;10657;51.276;6.390;2023-09-07T12:23:41;8.85;;;4.72;;
20997;SDS011;10657;51.276;6.390;2023-09-07T12:26:08;7.60;;;4.13;;
20997;SDS011;10657;51.276;6.390;2023-09-07T12:28:35;7.55;;;4.35;;
20997;SDS011;10657;51.276;6.390;2023-09-07T12:31:02;8.40;;;4.07;;
20997;SDS011;10657;51.276;6.390;2023-09-07T12:33:29;8.32;;;4.63;;
20997;SDS011;10657;51.276;6.390;2023-09-07T12:35:57;8.82;;;4.35;;
20997;SDS011;10657;51.276;6.390;2023-09-07T12:38:24;8.18;;;4.40;;
20997;SDS011;10657;51.276;6.390;2023-09-07T12:40:54;8.20;;;3.95;;
20997;SDS011;10657;51.276;6.390;2023-09-07T12:43:21;8.18;;;4.47;;
20997;SDS011;10657;51.276;6.390;2023-09-07T12:45:48;10.65;;;4.30;;
20997;SDS011;10657;51.276;6.390;2023-09-07T12:48:14;7.97;;;4.13;;
20997;SDS011;10657;51.276;6.390;2023-09-07T12:50:42;8.20;;;3.88;;
20997;SDS011;10657;51.276;6.390;2023-09-07T12:53:09;7.28;;;4.07;;
20997;SDS011;10657;51.276;6.390;2023-09-07T12:55:36;6.70;;;3.35;;
20997;SDS011;10657;51.276;6.390;2023-09-07T12:58:02;8.05;;;4.22;;
20997;SDS011;10657;51.276;6.390;2023-09-07T13:00:29;9.52;;;4.57;;
20997;SDS011;10657;51.276;6.390;2023-09-07T13:02:56;9.75;;;4.43;;
20997;SDS011;10657;51.276;6.390;2023-09-07T13:05:23;9.45;;;4.47;;
20997;SDS011;10657;51.276;6.390;2023-09-07T13:07:50;8.73;;;4.30;;
20997;SDS011;10657;51.276;6.390;2023-09-07T13:10:17;6.95;;;3.80;;
20997;SDS011;10657;51.276;6.390;2023-09-07T13:12:44;8.60;;;4.25;;
20997;SDS011;10657;51.276;6.390;2023-09-07T13:15:11;9.65;;;3.92;;
20997;SDS011;10657;51.276;6.390;2023-09-07T13:17:38;7.03;;;3.67;;
20997;SDS011;10657;51.276;6.390;2023-09-07T13:20:05;7.13;;;3.75;;
20997;SDS011;10657;51.276;6.390;2023-09-07T13:22:32;8.18;;;3.72;;
20997;SDS011;10657;51.276;6.390;2023-09-07T13:24:59;7.13;;;3.80;;
20997;SDS011;10657;51.276;6.390;2023-09-07T13:27:27;7.78;;;3.75;;
20997;SDS011;10657;51.276;6.390;2023-09-07T13:29:53;9.25;;;4.78;;
20997;SDS011;10657;51.276;6.390;2023-09-07T13:32:20;8.50;;;4.18;;
20997;SDS011;10657;51.276;6.390;2023-09-07T13:34:47;7.35;;;4.03;;
20997;SDS011;10657;51.276;6.390;2023-09-07T13:37:14;9.18;;;4.40;;
20997;SDS011;10657;51.276;6.390;2023-09-07T13:39:40;9.55;;;4.82;;
20997;SDS011;10657;51.276;6.390;2023-09-07T13:42:07;9.20;;;3.85;;
20997;SDS011;10657;51.276;6.390;2023-09-07T13:44:34;9.27;;;4.18;;
20997;SDS011;10657;51.276;6.390;2023-09-07T13:47:00;8.88;;;4.07;;
20997;SDS011;10657;51.276;6.390;2023-09-07T13:49:27;6.80;;;3.60;;
20997;SDS011;10657;51.276;6.390;2023-09-07T13:51:54;8.13;;;4.20;;
20997;SDS011;10657;51.276;6.390;2023-09-07T13:54:21;10.80;;;4.68;;
20997;SDS011;10657;51.276;6.390;2023-09-07T13:56:47;7.75;;;3.95;;
20997;SDS011;10657;51.276;6.390;2023-09-07T13:59:14;8.27;;;3.85;;
20997;SDS011;10657;51.276;6.390;2023-09-07T14:01:41;7.18;;;3.95;;
20997;SDS011;10657;51.276;6.390;2023-09-07T14:04:07;6.88;;;3.53;;
20997;SDS011;10657;51.276;6.390;2023-09-07T14:06:34;7.00;;;4.00;;
20997;SDS011;10657;51.276;6.390;2023-09-07T14:09:01;6.63;;;4.07;;
20997;SDS011;10657;51.276;6.390;2023-09-07T14:11:27;8.02;;;4.35;;
20997;SDS011;10657;51.276;6.390;2023-09-07T14:13:54;6.60;;;3.70;;
20997;SDS011;10657;51.276;6.390;2023-09-07T14:16:21;6.80;;;3.95;;
20997;SDS011;10657;51.276;6.390;2023-09-07T14:18:49;9.43;;;4.13;;
20997;SDS011;10657;51.276;6.390;2023-09-07T14:21:16;6.80;;;3.75;;
20997;SDS011;10657;51.276;6.390;2023-09-07T14:23:43;7.25;;;4.22;;
20997;SDS011;10657;51.276;6.390;2023-09-07T14:26:10;7.32;;;4.30;;
20997;SDS011;10657;51.276;6.390;2023-09-07T14:28:37;8.43;;;4.13;;
20997;SDS011;10657;51.276;6.390;2023-09-07T14:31:06;11.52;;;5.40;;
20997;SDS011;10657;51.276;6.390;2023-09-07T14:33:34;6.50;;;3.65;;
20997;SDS011;10657;51.276;6.390;2023-09-07T14:36:05;7.82;;;4.43;;
20997;SDS011;10657;51.276;6.390;2023-09-07T14:38:32;8.95;;;4.18;;
20997;SDS011;10657;51.276;6.390;2023-09-07T14:41:08;7.45;;;3.95;;
20997;SDS011;10657;51.276;6.390;2023-09-07T14:43:45;7.95;;;4.13;;
20997;SDS011;10657;51.276;6.390;2023-09-07T14:46:12;8.13;;;4.03;;